Flight Track Log - Related Links

Times and Time Zones

All times are in EDT time to prevent confusion due to time zone crossing. See the N9246F flight status page for this flight to view local times or setup timezone preferences in your user account.

Time Position Orientation Groundspeed Altitude Reporting Facility
EDT Latitude Longitude Course Direction KTS MPH feet Rate Location/Type
Fri 11:37:44 AM 28.0667 -80.6167 156° South 93 107 2,200  Level Orlando TRACON
Fri 11:38:55 AM 28.0325 -80.6153 178° South 87 100 2,800 448 Climbing Miami Center
Fri 11:39:58 AM 28.0069 -80.6081 166° South 88 101 3,200 384 Climbing Miami Center
Fri 11:41:00 AM 27.9424 -80.5795 156° South  Level FlightAware Approximate
Fri 11:41:00 AM 27.9836 -80.5956 155° Southeast 88 101 3,600  Level Miami Center
Fri 11:42:00 AM 27.9172 -80.5669 156° South  Level FlightAware Approximate
Fri 11:42:02 AM 27.9597 -80.5894 167° South 88 101 3,700  Level Miami Center
Fri 11:43:04 AM 27.9306 -80.5814 166° South 102 117 4,000 144 Climbing Miami Center
Fri 11:44:07 AM 27.9014 -80.5758 170° South 105 121 4,000  Level Miami Center
Fri 11:45:09 AM 27.8736 -80.5625 157° South 104 120 4,000  Level Miami Center
Fri 11:46:11 AM 27.8467 -80.5456 151° Southeast 104 120 4,000 -145 Level Miami Center
Fri 11:47:13 AM 27.8167 -80.5308 157° South 108 124 3,700 -435 Descending Miami Center
Fri 11:48:15 AM 27.7897 -80.5358 189° South 113 130 3,100 -336 Descending Miami Center
Fri 11:49:18 AM 27.7744 -80.5656 240° Southwest 109 125 3,000 -48 Descending Miami Center
Fri 11:50:20 AM 27.7525 -80.5900 225° Southwest 106 122 3,000 -145 Level Miami Center
Fri 11:51:22 AM 27.7283 -80.6078 213° Southwest 106 122 2,700 -484 Descending Miami Center
Fri 11:52:24 AM 27.7097 -80.5864 135° Southeast 108 124 2,000 -336 Descending Miami Center
Fri 11:53:27 AM 27.7011 -80.5558 108° East 103 119 2,000  Level Miami Center
Fri 11:54:29 AM 27.6900 -80.5258 113° Southeast 102 117 2,000 -242 Level Miami Center
Fri 11:55:31 AM 27.6825 -80.5036 111° Southeast 73 84 1,500 -435 Descending Miami Center
Fri 11:56:33 AM 27.6761 -80.4856 112° Southeast 62 71 1,100 -384 Descending Miami Center
Fri 11:57:36 AM 27.6708 -80.4658 107° East 62 71 700 -288 Descending Miami Center
Fri 11:58:38 AM 27.6650 -80.4478 110° East 62 71 500 -194 Descending Miami Center

Login

Don't have an account? Register now (free) for customized features, flight alerts, and more!